Date,TemperatureHighF,TemperatureAvgF,TemperatureLowF,DewpointHighF,DewpointAvgF,DewpointLowF,HumidityHigh,HumidityAvg,HumidityLow,PressureMaxIn,PressureMinIn,WindSpeedMaxMPH,WindSpeedAvgMPH,GustSpeedMaxMPH,PrecipitationSumIn
2013-4-1,55,37,26,42,30,12,98,78,49,29.85,29.65,11,1,11,0.37
2013-4-2,36,27,23,15,12,9,70,51,40,29.97,29.82,13,3,15,0.37
2013-4-3,42,30,23,18,12,8,72,48,32,30.21,29.97,10,3,13,0.04
2013-4-4,53,37,24,21,10,-12,65,39,7,30.30,30.03,10,1,10,0.37
2013-4-5,58,42,33,25,19,-10,61,41,7,30.06,29.76,11,1,11,0.37
2013-4-6,48,34,24,21,6,-14,66,36,8,30.33,29.94,10,1,13,0.37
2013-4-7,54,40,28,36,22,9,82,50,29,30.30,29.97,15,1,15,0.37
2013-4-8,66,49,37,38,34,28,93,59,30,30.12,29.97,7,1,7,0.37
2013-4-9,67,54,43,51,38,32,95,58,38,30.09,29.91,12,1,12,0.37
2013-4-10,62,51,42,51,45,35,95,80,56,30.06,29.88,5,0,5,0.37
2013-4-11,52,44,33,48,38,26,97,80,51,30.12,29.91,5,1,5,0.37
2013-4-12,34,33,32,33,32,30,98,96,89,30.12,29.82,16,2,16,0.37
2013-4-13,50,39,32,40,34,31,98,86,52,29.97,29.79,57,0,57,0.37
2013-4-14,48,38,30,34,27,20,94,68,45,30.24,29.94,10,1,10,4.19
2013-4-15,59,43,29,33,27,21,81,55,36,30.39,30.21,11,1,11,0.37
2013-4-16,62,49,38,54,40,23,98,72,47,30.39,30.12,12,1,12,0.37
2013-4-17,66,50,40,53,35,25,98,58,32,30.36,30.12,20,1,20,0.37
2013-4-18,58,47,35,45,30,23,91,52,36,30.41,30.18,10,2,10,4.31
2013-4-19,69,59,47,61,55,44,98,88,69,30.18,29.74,11,2,11,4.56
2013-4-20,59,44,32,48,31,17,96,65,37,30.27,29.74,12,2,12,0.37
2013-4-21,54,38,27,27,18,13,57,45,28,30.62,30.24,10,1,10,0.37
2013-4-22,58,41,30,30,21,15,65,46,28,30.71,30.50,10,2,10,0.37
2013-4-23,42,36,32,36,31,23,94,80,65,30.53,30.15,7,1,7,0.37
2013-4-24,77,55,38,47,40,36,96,65,26,30.18,29.85,8,1,8,4.90
2013-4-25,60,47,36,50,30,16,96,56,20,30.30,29.88,12,2,12,0.37
2013-4-26,64,47,33,35,26,20,60,44,26,30.44,30.27,10,1,10,0.37
2013-4-27,70,50,32,37,27,-10,71,45,4,30.44,30.30,7,1,7,0.37
2013-4-28,72,54,37,41,32,25,70,45,29,30.36,30.21,10,1,10,0.37
2013-4-29,61,51,44,43,31,24,73,47,37,30.33,30.21,10,1,10,0.37
2013-4-30,72,56,42,38,24,-14,70,36,3,30.36,30.27,6,1,6,0.00